Time;durP1;ratioP1;P1;durP2;ratioP2;P2;SDS_P1;SDS_P2;PMS_P1;PMS_P2;Temp;Humidity;BMP_temperature;BMP_pressure;BME280_temperature;BME280_humidity;BME280_pressure;Samples;Min_cycle;Max_cycle;Signal;HPM_P1;HPM_P2
2021/07/02 00:02:26;;;;;;;;;;;;;;;21.54;85.58;99374.37;1694772;84;20124;-67
2021/07/02 00:04:53;;;;;;;;;;;;;;;21.51;85.71;99371.23;1694839;84;20103;-67
2021/07/02 00:07:19;;;;;;;;;;;;;;;21.47;85.87;99364.62;1694824;84;20115;-66
2021/07/02 00:09:47;;;;;;;;;;;;;;;21.43;86.05;99358.84;1694944;84;20116;-66
2021/07/02 00:12:13;;;;;;;;;;;;;;;21.38;86.23;99357.20;1694910;84;21126;-66
2021/07/02 00:14:42;;;;;;;;;;;;;;;21.35;86.46;99352.25;1694796;84;20107;-66
2021/07/02 00:17:09;;;;;;;;;;;;;;;21.34;86.66;99349.27;1694884;84;20149;-66
2021/07/02 00:19:36;;;;;;;;;;;;;;;21.30;86.79;99348.79;1695030;84;20075;-66
2021/07/02 00:22:03;;;;;;;;;;;;;;;21.28;86.91;99343.34;1694835;84;20385;-66
2021/07/02 00:24:30;;;;;;;;;;;;;;;21.24;87.08;99340.20;1694817;84;21131;-66
2021/07/02 00:26:57;;;;;;;;;;;;;;;21.24;87.18;99336.73;1694854;84;20128;-66
2021/07/02 00:29:23;;;;;;;;;;;;;;;21.22;87.19;99340.04;1695066;84;20103;-66
2021/07/02 00:31:52;;;;;;;;;;;;;;;21.21;87.19;99345.02;1694871;84;20143;-66
2021/07/02 00:34:19;;;;;;;;;;;;;;;21.17;87.24;99350.31;1694904;84;20088;-66
2021/07/02 00:36:46;;;;;;;;;;;;;;;21.16;87.44;99347.34;1694884;84;21157;-66
2021/07/02 00:39:13;;;;;;;;;;;;;;;21.14;87.51;99350.16;1694821;84;20123;-66
2021/07/02 00:41:40;;;;;;;;;;;;;;;21.12;87.42;99349.50;1694869;84;20087;-66
2021/07/02 00:44:06;;;;;;;;;;;;;;;21.10;87.27;99349.34;1694816;84;20123;-71
2021/07/02 00:46:33;;;;;;;;;;;;;;;21.08;87.35;99350.01;1695149;84;20076;-70
2021/07/02 00:49:00;;;;;;;;;;;;;;;21.06;87.45;99359.44;1694807;84;21131;-71
2021/07/02 00:51:30;;;;;;;;;;;;;;;21.05;87.56;99365.73;1695057;83;20127;-70
2021/07/02 00:53:58;;;;;;;;;;;;;;;21.04;87.36;99365.89;1690402;84;20127;-71
2021/07/02 00:56:25;;;;;;;;;;;;;;;21.02;87.40;99368.71;1700059;84;20139;-70
2021/07/02 00:58:52;;;;;;;;;;;;;;;21.01;87.44;99368.87;1708484;84;20121;-69
2021/07/02 01:01:21;;;;;;;;;;;;;;;20.97;87.40;99361.27;1708307;84;21119;-70
2021/07/02 01:03:49;;;;;;;;;;;;;;;20.93;87.52;99374.52;1707893;84;20086;-70
2021/07/02 01:06:18;;;;;;;;;;;;;;;20.90;87.56;99375.34;1708381;84;20426;-70
2021/07/02 01:08:45;;;;;;;;;;;;;;;20.87;87.73;99379.16;1708351;84;20102;-71
2021/07/02 01:11:12;;;;;;;;;;;;;;;20.85;87.66;99374.52;1708634;84;20091;-68
2021/07/02 01:13:40;;;;;;;;;;;;;;;20.83;87.70;99377.00;1708424;84;21005;-69
2021/07/02 01:16:09;;;;;;;;;;;;;;;20.82;87.85;99392.05;1708578;84;20438;-70
2021/07/02 01:18:38;;;;;;;;;;;;;;;20.84;88.10;99387.92;1708500;84;20167;-67
2021/07/02 01:21:07;;;;;;;;;;;;;;;20.86;88.12;99377.99;1708433;84;20087;-71
2021/07/02 01:23:34;;;;;;;;;;;;;;;20.86;88.08;99382.79;1708757;84;20159;-70
2021/07/02 01:26:01;;;;;;;;;;;;;;;20.88;88.02;99379.48;1708300;84;22828;-70
2021/07/02 01:28:28;;;;;;;;;;;;;;;20.89;88.05;99377.66;1707436;84;20075;-70
2021/07/02 01:30:55;;;;;;;;;;;;;;;20.90;87.93;99378.81;1708343;84;20122;-69
2021/07/02 01:33:22;;;;;;;;;;;;;;;20.91;87.92;99376.50;1708315;82;20119;-69
2021/07/02 01:35:49;;;;;;;;;;;;;;;20.91;87.97;99373.85;1708524;84;20412;-69
2021/07/02 01:38:18;;;;;;;;;;;;;;;20.89;88.11;99369.23;1708360;84;21514;-69
2021/07/02 01:40:46;;;;;;;;;;;;;;;20.88;88.16;99367.57;1708365;84;20143;-69
2021/07/02 01:43:14;;;;;;;;;;;;;;;20.85;88.20;99362.61;1708354;84;20127;-68
2021/07/02 01:45:43;;;;;;;;;;;;;;;20.83;88.23;99350.55;1708335;84;20205;-67
2021/07/02 01:48:09;;;;;;;;;;;;;;;20.80;88.45;99347.73;1708451;84;20087;-70
2021/07/02 01:50:37;;;;;;;;;;;;;;;20.80;88.53;99341.61;1708696;84;21201;-68
2021/07/02 01:53:06;;;;;;;;;;;;;;;20.80;88.51;99341.61;1708244;84;20119;-68
2021/07/02 01:55:34;;;;;;;;;;;;;;;20.79;88.46;99338.17;1708534;84;20127;-67
2021/07/02 01:58:01;;;;;;;;;;;;;;;20.82;88.42;99342.27;1696277;84;20142;-66
2021/07/02 02:00:32;;;;;;;;;;;;;;;20.85;88.22;99339.30;1693811;84;20123;-67
2021/07/02 02:03:01;;;;;;;;;;;;;;;20.88;88.15;99334.98;1694712;84;21896;-67
2021/07/02 02:05:28;;;;;;;;;;;;;;;20.88;88.03;99329.70;1694818;84;20091;-67
2021/07/02 02:07:55;;;;;;;;;;;;;;;20.87;87.95;99327.55;1694995;84;20163;-66
2021/07/02 02:10:22;;;;;;;;;;;;;;;20.84;87.91;99325.73;1694769;84;20107;-67
2021/07/02 02:12:50;;;;;;;;;;;;;;;20.83;87.86;99320.94;1695201;84;20120;-66
2021/07/02 02:15:17;;;;;;;;;;;;;;;20.85;87.87;99316.80;1694745;84;21166;-66
2021/07/02 02:17:45;;;;;;;;;;;;;;;20.87;87.85;99314.81;1694850;84;20398;-67
2021/07/02 02:20:13;;;;;;;;;;;;;;;20.89;87.78;99309.68;1694747;84;20099;-67
2021/07/02 02:22:40;;;;;;;;;;;;;;;20.87;87.90;99301.58;1695140;84;20422;-67
2021/07/02 02:25:08;;;;;;;;;;;;;;;20.86;87.91;99297.28;1694831;84;20095;-67
2021/07/02 02:27:36;;;;;;;;;;;;;;;20.83;87.99;99302.41;1695093;84;21062;-67
2021/07/02 02:30:05;;;;;;;;;;;;;;;20.86;87.95;99309.19;1694672;84;20108;-67
2021/07/02 02:32:32;;;;;;;;;;;;;;;20.89;87.62;99318.94;1694912;84;20099;-67
2021/07/02 02:35:01;;;;;;;;;;;;;;;20.95;87.35;99315.63;1694795;84;20099;-67
2021/07/02 02:37:28;;;;;;;;;;;;;;;21.00;86.95;99323.05;1695006;84;20143;-67
2021/07/02 02:39:55;;;;;;;;;;;;;;;21.14;86.67;99336.09;1694753;84;21754;-71
2021/07/02 02:42:22;;;;;;;;;;;;;;;21.26;86.04;99335.56;1694947;84;20489;-67
2021/07/02 02:44:49;;;;;;;;;;;;;;;21.49;85.27;99330.34;1694766;84;20128;-67
2021/07/02 02:47:17;;;;;;;;;;;;;;;21.70;84.16;99321.77;1694751;84;20099;-67
2021/07/02 02:49:45;;;;;;;;;;;;;;;21.95;82.92;99323.28;1694761;84;20417;-68
2021/07/02 02:52:11;;;;;;;;;;;;;;;22.23;81.85;99320.94;1694970;84;21120;-71
2021/07/02 02:54:40;;;;;;;;;;;;;;;22.56;80.60;99333.92;1694691;84;20449;-71
2021/07/02 02:57:07;;;;;;;;;;;;;;;22.99;78.83;99337.66;1700017;84;20118;-71
2021/07/02 02:59:36;;;;;;;;;;;;;;;23.41;77.03;99333.52;1707844;84;20119;-71
2021/07/02 03:02:04;;;;;;;;;;;;;;;23.79;75.31;99337.69;1684030;84;20103;-71
2021/07/02 03:04:34;;;;;;;;;;;;;;;24.15;73.42;99346.13;1708427;84;21510;-71
2021/07/02 03:07:04;;;;;;;;;;;;;;;24.48;71.92;99345.94;1708191;84;20124;-69
2021/07/02 03:09:33;;;;;;;;;;;;;;;24.78;70.60;99337.28;1708752;84;20099;-70
2021/07/02 03:12:00;;;;;;;;;;;;;;;25.05;68.95;99337.47;1708295;84;20103;-68
2021/07/02 03:14:28;;;;;;;;;;;;;;;25.21;68.17;99334.46;1708693;84;20428;-70
2021/07/02 03:16:57;;;;;;;;;;;;;;;25.32;67.20;99335.75;1708348;84;20087;-68
2021/07/02 03:19:24;;;;;;;;;;;;;;;25.38;66.91;99341.12;1708490;84;20091;-68
2021/07/02 03:21:52;;;;;;;;;;;;;;;25.49;66.10;99340.55;1708373;84;20127;-67
2021/07/02 03:24:19;;;;;;;;;;;;;;;25.59;65.75;99340.20;1708625;84;20119;-69
2021/07/02 03:26:47;;;;;;;;;;;;;;;25.70;65.11;99342.29;1708302;84;20087;-70
2021/07/02 03:29:14;;;;;;;;;;;;;;;25.83;64.62;99334.34;1708619;84;21137;-70
2021/07/02 03:31:44;;;;;;;;;;;;;;;26.06;63.97;99335.30;1708235;84;20119;-71
2021/07/02 03:34:12;;;;;;;6.05;4.67;;;;;;;26.38;63.10;99328.91;1706789;84;20102;-69
2021/07/02 03:36:40;;;;;;;6.08;5.00;;;;;;;26.74;62.19;99336.48;1717790;82;21459;-71
2021/07/02 03:39:07;;;;;;;7.28;5.00;;;;;;;27.07;60.85;99343.13;1718234;82;20885;-69
2021/07/02 03:41:35;;;;;;;5.58;4.95;;;;;;;27.30;60.23;99347.47;1717918;83;21226;-70
2021/07/02 03:44:02;;;;;;;6.50;4.42;;;;;;;27.48;59.41;99360.17;1717767;83;20980;-69
2021/07/02 03:46:30;;;;;;;5.90;5.17;;;;;;;27.72;58.61;99357.31;1717465;83;20941;-65
2021/07/02 03:48:58;;;;;;;13.58;4.80;;;;;;;28.03;58.13;99377.41;1717822;83;21423;-64
2021/07/02 03:51:25;;;;;;;8.98;5.60;;;;;;;28.35;57.51;99384.98;1718131;82;21439;-64
2021/07/02 03:53:52;;;;;;;7.90;6.80;;;;;;;28.66;56.75;99373.91;1717880;83;21160;-66
2021/07/02 03:56:19;;;;;;;11.80;8.68;;;;;;;28.68;56.64;99379.88;1718036;83;20865;-66
2021/07/02 03:58:46;;;;;;;13.98;10.18;;;;;;;28.59;56.64;99376.64;1705848;83;20910;-66
2021/07/02 04:01:13;;;;;;;12.13;10.93;;;;;;;28.46;56.97;99380.23;1740438;82;20946;-66
2021/07/02 04:03:42;;;;;;;13.10;10.58;;;;;;;28.51;57.12;99379.07;1740144;81;20978;-66
2021/07/02 04:06:10;;;;;;;10.58;9.48;;;;;;;28.65;56.80;99367.73;1740194;82;21038;-66
2021/07/02 04:08:37;;;;;;;12.95;10.18;;;;;;;28.78;56.02;99360.11;1740092;81;21437;-66
2021/07/02 04:11:07;;;;;;;8.95;8.08;;;;;;;28.90;55.65;99365.58;1740134;82;20930;-66
2021/07/02 04:13:34;;;;;;;9.70;8.70;;;;;;;29.19;54.72;99362.20;1740244;81;20993;-70
2021/07/02 04:16:03;;;;;;;9.90;7.65;;;;;;;29.41;54.24;99356.70;1740284;81;21413;-69
2021/07/02 04:18:31;;;;;;;8.60;7.80;;;;;;;29.66;53.55;99347.72;1740186;81;21962;-68
2021/07/02 04:20:58;;;;;;;11.33;7.75;;;;;;;29.89;52.80;99355.88;1740055;82;20917;-66
2021/07/02 04:23:25;;;;;;;11.88;7.85;;;;;;;30.13;52.27;99353.59;1740253;81;20941;-67
2021/07/02 04:25:52;;;;;;;10.63;7.90;;;;;;;30.33;51.65;99351.95;1740262;81;20949;-66
2021/07/02 04:28:20;;;;;;;10.88;7.97;;;;;;;30.55;50.88;99340.64;1740200;81;20930;-66
2021/07/02 04:30:47;;;;;;;16.52;8.05;;;;;;;30.72;50.63;99338.41;1740325;82;21513;-66
2021/07/02 04:33:14;;;;;;;9.88;7.83;;;;;;;30.88;50.14;99341.42;1740117;82;21516;-66
2021/07/02 04:35:41;;;;;;;9.65;7.50;;;;;;;31.09;49.71;99339.48;1740091;82;20847;-66
2021/07/02 04:38:08;;;;;;;8.40;7.55;;;;;;;31.41;48.02;99334.00;1740173;82;20879;-70
2021/07/02 04:40:35;;;;;;;9.43;8.05;;;;;;;31.68;48.04;99342.89;1740115;82;20938;-70
2021/07/02 04:43:03;;;;;;;8.23;7.40;;;;;;;31.79;47.82;99342.84;1740257;82;21043;-70
2021/07/02 04:45:31;;;;;;;8.90;6.87;;;;;;;31.72;47.42;99346.73;1740152;82;21733;-68
2021/07/02 04:47:58;;;;;;;11.95;6.75;;;;;;;31.51;47.63;99350.89;1740335;81;20910;-70
2021/07/02 04:50:26;;;;;;;9.10;6.47;;;;;;;31.27;48.07;99357.36;1748796;81;20998;-70
2021/07/02 04:52:53;;;;;;;10.03;8.08;;;;;;;30.98;48.55;99354.58;1752412;81;20915;-67
2021/07/02 04:55:22;;;;;;;7.28;5.45;;;;;;;30.70;49.11;99364.70;1749977;81;21095;-67
2021/07/02 04:57:50;;;;;;;12.18;5.75;;;;;;;30.48;49.63;99364.92;1743821;80;20903;-68
2021/07/02 05:00:17;;;;;;;6.87;6.17;;;;;;;30.30;50.27;99361.00;1780246;80;20903;-69
2021/07/02 05:02:45;;;;;;;6.72;5.53;;;;;;;30.21;50.69;99355.13;1767858;80;20942;-72
2021/07/02 05:05:12;;;;;;;9.43;5.85;;;;;;;30.16;50.75;99357.69;1781640;80;21001;-66
2021/07/02 05:07:39;;;;;;;6.22;5.62;;;;;;;30.03;51.09;99356.00;1765303;80;21110;-72
2021/07/02 05:10:08;;;;;;;6.95;5.50;;;;;;;29.93;51.52;99365.64;1768918;80;21029;-72
2021/07/02 05:12:37;;;;;;;6.72;5.20;;;;;;;29.81;51.79;99358.36;1761667;80;21560;-70
2021/07/02 05:15:06;;;;;;;7.33;4.78;;;;;;;29.78;52.05;99359.33;1761854;80;21479;-72
2021/07/02 05:17:34;;;;;;;6.05;4.70;;;;;;;29.90;51.53;99364.23;1774780;80;20993;-71
2021/07/02 05:20:04;;;;;;;5.87;4.37;;;;;;;30.06;51.00;99361.44;1771501;80;20967;-75
2021/07/02 05:22:32;;;;;;;6.85;5.25;;;;;;;30.25;50.46;99357.66;1764923;80;21011;-73
2021/07/02 05:25:00;;;;;;;5.87;5.00;;;;;;;30.46;50.24;99354.41;1778205;80;21046;-62
2021/07/02 05:27:28;;;;;;;9.03;5.33;;;;;;;30.59;49.80;99349.91;1770603;80;20938;-77
2021/07/02 05:29:56;;;;;;;6.62;5.08;;;;;;;30.58;49.18;99348.27;1772890;80;20995;-78
2021/07/02 05:32:23;;;;;;;9.58;5.60;;;;;;;30.52;49.57;99349.45;1775398;80;21139;-78
2021/07/02 05:34:51;;;;;;;8.83;5.35;;;;;;;30.69;49.59;99338.06;1769257;80;21124;-70
2021/07/02 05:37:18;;;;;;;5.78;4.50;;;;;;;31.09;49.14;99332.23;1727583;82;20954;-76
2021/07/02 05:39:46;;;;;;;6.35;4.37;;;;;;;31.65;47.66;99338.77;1715114;83;21627;-79
2021/07/02 05:42:14;;;;;;;6.03;4.75;;;;;;;32.28;46.22;99339.70;1708086;83;22299;-80
2021/07/02 05:44:41;;;;;;;8.65;5.20;;;;;;;32.70;44.77;99337.39;1709971;83;22022;-70
2021/07/02 05:47:08;;;;;;;5.15;4.67;;;;;;;32.84;44.79;99337.34;1711214;83;20956;-76
2021/07/02 05:49:35;;;;;;;6.25;4.53;;;;;;;33.18;44.21;99342.68;1708689;83;21488;-69
2021/07/02 05:52:02;;;;;;;11.22;4.72;;;;;;;33.55;43.30;99333.44;1715689;82;20990;-78
2021/07/02 05:54:31;;;;;;;4.55;4.05;;;;;;;33.91;42.69;99341.41;1719877;82;20994;-71
2021/07/02 05:56:58;;;;;;;6.17;4.75;;;;;;;34.25;42.25;99337.94;1724380;83;21159;-72
2021/07/02 05:59:25;;;;;;;5.70;4.03;;;;;;;34.59;41.47;99346.61;1705810;82;21072;-75
2021/07/02 06:01:52;;;;;;;5.30;3.67;;;;;;;34.88;40.65;99341.14;1692062;83;20959;-76
2021/07/02 06:04:19;;;;;;;5.53;4.00;;;;;;;35.16;40.01;99340.50;1709348;83;21501;-73
2021/07/02 06:06:47;;;;;;;6.15;4.30;;;;;;;35.40;39.64;99341.70;1714361;83;20939;-74
2021/07/02 06:09:15;;;;;;;7.05;3.83;;;;;;;35.57;38.74;99332.84;1705692;83;21159;-73
2021/07/02 06:11:42;;;;;;;4.95;3.80;;;;;;;35.74;38.57;99329.34;1710763;83;22068;-70
2021/07/02 06:14:09;;;;;;;6.50;4.10;;;;;;;35.93;37.83;99328.88;1713979;83;20928;-72
2021/07/02 06:16:37;;;;;;;5.03;3.70;;;;;;;36.04;37.70;99333.20;1708933;83;21526;-64
2021/07/02 06:19:04;;;;;;;4.83;3.95;;;;;;;36.16;37.31;99326.98;1705397;83;21030;-65
2021/07/02 06:21:33;;;;;;;6.50;4.10;;;;;;;36.30;37.11;99325.94;1709342;83;21672;-71
2021/07/02 06:24:00;;;;;;;5.47;3.85;;;;;;;36.43;36.90;99329.44;1761383;81;20917;-72
2021/07/02 06:26:27;;;;;;;4.58;4.10;;;;;;;36.58;36.41;99324.00;1753555;81;20997;-79
2021/07/02 06:28:55;;;;;;;7.05;3.70;;;;;;;36.78;35.95;99325.91;1760531;81;37865;-63
2021/07/02 06:31:23;;;;;;;7.75;3.42;;;;;;;36.70;36.51;99325.08;1755372;81;20995;-79
2021/07/02 06:33:50;;;;;;;5.80;3.85;;;;;;;36.76;35.58;99320.48;1758686;81;21095;-75
2021/07/02 06:36:17;;;;;;;12.95;4.50;;;;;;;36.85;35.30;99325.05;1769162;81;20924;-67
2021/07/02 06:38:44;;;;;;;6.20;3.80;;;;;;;36.94;35.49;99330.19;1755137;81;21102;-69
2021/07/02 06:41:11;;;;;;;7.03;3.98;;;;;;;37.02;34.63;99322.03;1761231;81;21016;-68
2021/07/02 06:43:38;;;;;;;5.78;4.12;;;;;;;37.01;34.44;99316.33;1763070;80;21394;-68
2021/07/02 06:46:05;;;;;;;4.97;3.83;;;;;;;36.93;35.04;99323.14;1765379;81;21181;-69
2021/07/02 06:48:32;;;;;;;6.33;3.92;;;;;;;36.95;35.50;99321.50;1770626;81;20962;-70
2021/07/02 06:51:00;;;;;;;6.20;3.87;;;;;;;37.01;35.05;99328.00;1764486;81;20953;-69
2021/07/02 06:53:28;;;;;;;4.90;3.87;;;;;;;37.04;34.99;99330.71;1761745;80;21061;-68
2021/07/02 06:55:55;;;;;;;4.90;4.37;;;;;;;37.11;34.74;99331.78;1757000;81;21022;-65
2021/07/02 06:58:22;;;;;;;7.33;4.30;;;;;;;37.17;34.62;99326.60;1764279;80;21112;-68
2021/07/02 07:00:50;;;;;;;4.37;3.87;;;;;;;37.18;34.61;99327.69;1768465;80;21008;-67
2021/07/02 07:03:17;;;;;;;4.45;3.70;;;;;;;37.19;34.36;99324.42;1773055;80;21075;-72
2021/07/02 07:05:44;;;;;;;6.58;3.65;;;;;;;37.16;34.25;99322.27;1759208;80;21547;-73
2021/07/02 07:08:12;;;;;;;5.42;3.92;;;;;;;37.15;34.62;99321.45;1757330;80;21460;-72
2021/07/02 07:10:41;;;;;;;5.70;3.62;;;;;;;37.16;34.61;99319.00;1767705;80;20946;-66
2021/07/02 07:13:09;;;;;;;7.08;3.83;;;;;;;37.19;34.83;99326.56;1768289;80;21009;-71
2021/07/02 07:15:36;;;;;;;6.53;4.08;;;;;;;37.23;34.61;99330.37;1767253;80;20930;-69
2021/07/02 07:18:03;;;;;;;7.03;3.72;;;;;;;37.24;34.82;99323.86;1763640;80;20994;-68
2021/07/02 07:20:30;;;;;;;6.08;3.52;;;;;;;37.25;34.75;99327.39;1772335;80;21037;-67
2021/07/02 07:22:57;;;;;;;5.45;4.00;;;;;;;37.29;35.07;99331.17;1768680;80;21140;-70
2021/07/02 07:25:25;;;;;;;4.05;3.58;;;;;;;37.34;34.92;99324.37;1775299;80;21046;-71
2021/07/02 07:27:52;;;;;;;6.50;3.42;;;;;;;37.34;34.44;99321.11;1774390;80;20994;-69
2021/07/02 07:30:20;;;;;;;4.10;3.72;;;;;;;37.23;33.92;99326.31;1768808;80;20931;-70
2021/07/02 07:32:50;;;;;;;4.50;3.77;;;;;;;36.91;34.83;99324.50;1775238;80;20898;-75
2021/07/02 07:35:19;;;;;;;4.47;3.80;;;;;;;36.80;34.97;99325.06;1771483;80;22033;-66
2021/07/02 07:37:55;;;;;;;5.72;3.80;;;;;;;36.87;35.17;99327.48;1775796;80;20897;-71
2021/07/02 07:40:26;;;;;;;4.10;3.12;;;;;;;36.95;35.27;99324.22;1772416;80;20879;-70
2021/07/02 07:42:53;;;;;;;5.35;3.95;;;;;;;37.04;35.10;99322.02;1769133;80;20970;-75
2021/07/02 07:45:21;;;;;;;6.53;3.87;;;;;;;37.10;34.91;99318.75;1768918;80;20839;-71
2021/07/02 07:47:49;;;;;;;5.92;3.55;;;;;;;37.15;34.72;99318.73;1773493;80;21135;-71
2021/07/02 07:50:21;;;;;;;9.75;3.80;;;;;;;37.12;35.07;99317.12;1763481;80;21021;-74
2021/07/02 07:52:54;;;;;;;5.00;3.62;;;;;;;37.11;34.96;99313.59;1770491;80;20932;-73
2021/07/02 07:55:20;;;;;;;7.85;3.75;;;;;;;37.14;34.84;99308.16;1767944;80;20938;-73
2021/07/02 07:57:47;;;;;;;5.45;3.62;;;;;;;37.18;35.18;99307.32;1765472;80;20978;-72
2021/07/02 08:00:16;;;;;;;5.85;4.00;;;;;;;37.28;35.30;99305.11;1765476;80;21088;-69
2021/07/02 08:02:44;;;;;;;8.68;7.78;;;;;;;37.40;34.96;99305.60;1763879;80;21041;-70
2021/07/02 08:05:12;;;;;;;6.42;4.30;;;;;;;37.47;34.78;99301.23;1765493;80;21527;-68
2021/07/02 08:07:41;;;;;;;6.92;4.20;;;;;;;37.49;34.57;99294.97;1760582;80;20968;-66
2021/07/02 08:10:12;;;;;;;4.62;3.67;;;;;;;37.49;34.71;99297.69;1765959;80;21009;-65
2021/07/02 08:12:43;;;;;;;5.85;3.70;;;;;;;37.54;34.61;99301.73;1739222;80;21223;-66
2021/07/02 08:15:13;;;;;;;5.90;3.90;;;;;;;37.58;34.50;99299.54;1765786;80;21523;-68
2021/07/02 08:17:42;;;;;;;7.05;4.30;;;;;;;37.65;34.36;99293.22;1733348;82;21102;-66
2021/07/02 08:20:11;;;;;;;5.87;3.60;;;;;;;37.68;33.95;99292.69;1709333;83;21041;-68
2021/07/02 08:22:38;;;;;;;6.70;3.85;;;;;;;37.63;34.01;99297.31;1688466;84;21588;-67
2021/07/02 08:25:07;;;;;;;8.18;3.98;;;;;;;37.43;34.03;99306.95;1691533;84;21133;-64
2021/07/02 08:29:22;;;;;;;4.08;3.65;;;;;;;37.12;34.64;99302.19;1709578;83;21071;-65
2021/07/02 08:30:04;;;;;;;6.55;4.10;;;;;;;36.93;35.09;99300.06;1696810;84;21024;-62
2021/07/02 08:32:31;;;;;;;5.97;3.60;;;;;;;36.88;35.13;99300.08;1686733;84;20990;-64
2021/07/02 08:34:58;;;;;;;5.50;3.52;;;;;;;36.86;35.07;99289.23;1722597;83;21037;-65
2021/07/02 08:37:27;;;;;;;7.05;3.92;;;;;;;36.82;35.19;99293.04;1693560;84;21135;-66
2021/07/02 08:39:54;;;;;;;5.03;3.77;;;;;;;36.77;35.10;99292.27;1703124;84;20951;-67
2021/07/02 08:42:22;;;;;;;6.25;3.60;;;;;;;36.68;35.20;99294.15;1713140;83;20973;-69
2021/07/02 08:44:49;;;;;;;5.12;3.67;;;;;;;36.64;35.34;99299.85;1731622;82;21032;-67
2021/07/02 08:47:17;;;;;;;5.80;4.00;;;;;;;36.60;34.84;99293.35;1732620;82;20911;-66
2021/07/02 08:49:44;;;;;;;4.05;3.33;;;;;;;36.60;34.95;99295.25;1733623;82;21987;-71
2021/07/02 08:52:11;;;;;;;5.28;3.60;;;;;;;36.52;34.94;99295.26;1715882;83;20966;-69
2021/07/02 08:54:39;;;;;;;4.00;3.60;;;;;;;36.47;35.38;99292.55;1692880;84;21018;-68
2021/07/02 08:57:09;;;;;;;11.00;4.15;;;;;;;36.43;35.47;99286.59;1732465;82;20967;-70
2021/07/02 08:59:36;;;;;;;4.80;3.67;;;;;;;36.31;35.65;99282.28;1729334;82;21010;-66
2021/07/02 09:02:09;;;;;;;6.40;3.87;;;;;;;36.18;36.33;99274.66;1711863;83;21148;-68
2021/07/02 09:04:39;;;;;;;6.67;3.80;;;;;;;36.17;36.65;99281.17;1708281;83;21022;-70
2021/07/02 09:07:11;;;;;;;5.53;3.60;;;;;;;36.17;36.48;99275.75;1720445;82;20978;-66
2021/07/02 09:09:56;;;;;;;4.30;3.90;;;;;;;36.16;36.68;99278.73;1707777;83;20990;-67
2021/07/02 09:12:32;;;;;;;6.00;3.80;;;;;;;36.17;36.54;99271.68;1707050;83;21020;-72
2021/07/02 09:15:16;;;;;;;5.62;4.60;;;;;;;36.17;36.81;99277.10;1706371;83;21258;-67
2021/07/02 09:17:57;;;;;;;12.45;5.15;;;;;;;36.12;36.75;99277.10;1707280;83;21551;-64
2021/07/02 09:20:29;;;;;;;7.00;4.40;;;;;;;36.03;37.01;99271.41;1709838;83;21113;-68
2021/07/02 09:23:02;;;;;;;11.18;4.20;;;;;;;35.92;37.18;99273.86;1710825;83;21037;-67
2021/07/02 09:25:36;;;;;;;8.63;3.72;;;;;;;35.78;37.07;99270.05;1711969;82;21051;-69
2021/07/02 09:28:12;;;;;;;8.38;3.65;;;;;;;35.60;37.06;99269.17;1714343;83;21549;-64
2021/07/02 09:30:44;;;;;;;6.15;3.67;;;;;;;35.46;37.20;99257.24;1733143;82;20864;-71
2021/07/02 09:33:20;;;;;;;6.72;3.95;;;;;;;35.38;37.07;99261.28;1714057;83;20911;-69
2021/07/02 09:35:52;;;;;;;5.33;3.40;;;;;;;35.23;36.68;99263.91;1709293;83;20938;-69
2021/07/02 09:38:38;;;;;;;9.58;4.05;;;;;;;35.02;37.08;99265.20;1714374;83;20895;-67
2021/07/02 09:41:05;;;;;;;;;;;;;;;34.83;37.88;99264.02;1693354;83;22849;-70
2021/07/02 09:43:36;;;;;;;6.70;3.75;;;;;;;34.70;38.34;99268.00;1707031;83;20508;-73
2021/07/02 09:46:04;;;;;;;6.28;3.95;;;;;;;34.59;38.12;99272.25;1679741;83;21600;-68
2021/07/02 09:48:43;;;;;;;9.13;4.10;;;;;;;34.51;38.10;99273.55;1734105;82;21521;-68
2021/07/02 09:51:11;;;;;;;7.08;3.83;;;;;;;34.40;38.36;99278.06;1728466;82;21038;-68
2021/07/02 09:53:40;;;;;;;4.97;3.83;;;;;;;34.33;38.83;99274.80;1727012;82;21201;-66
2021/07/02 09:56:10;;;;;;;7.33;3.70;;;;;;;34.16;39.04;99272.73;1754354;81;20916;-70
2021/07/02 09:58:40;;;;;;;4.78;3.40;;;;;;;34.10;39.20;99274.58;1760738;81;20982;-70
2021/07/02 10:01:09;;;;;;;4.55;3.15;;;;;;;34.09;39.14;99266.73;1757049;80;21082;-70
2021/07/02 10:03:42;;;;;;;3.92;3.52;;;;;;;34.02;38.60;99268.83;1766294;81;21083;-76
2021/07/02 10:06:21;;;;;;;5.60;3.87;;;;;;;33.92;38.48;99269.58;1764969;81;21194;-70
2021/07/02 10:08:49;;;;;;;6.10;3.75;;;;;;;33.86;38.61;99271.13;1767969;80;21555;-70
2021/07/02 10:11:17;;;;;;;3.47;3.17;;;;;;;33.73;38.76;99270.44;1765708;81;20953;-73
2021/07/02 10:13:49;;;;;;;4.20;3.80;;;;;;;33.59;39.22;99263.81;1763439;81;20943;-73
2021/07/02 10:16:16;;;;;;;5.97;3.55;;;;;;;33.52;40.27;99269.97;1766994;81;20936;-75
2021/07/02 10:18:49;;;;;;;4.62;3.85;;;;;;;33.57;40.34;99265.98;1773331;80;21604;-72
2021/07/02 10:21:18;;;;;;;7.47;4.50;;;;;;;33.69;40.59;99278.77;1773916;80;20974;-76
2021/07/02 10:23:49;;;;;;;5.78;3.70;;;;;;;33.74;40.06;99274.77;1765495;81;20895;-75
2021/07/02 10:26:17;;;;;;;7.05;3.87;;;;;;;33.74;39.76;99270.72;1761910;81;21845;-69
2021/07/02 10:28:44;;;;;;;4.67;3.77;;;;;;;33.75;39.63;99279.10;1755593;81;21037;-72
2021/07/02 10:31:13;;;;;;;4.60;3.75;;;;;;;33.69;39.38;99279.30;1771114;80;21952;-73
2021/07/02 10:33:49;;;;;;;7.58;3.77;;;;;;;33.64;39.68;99278.72;1771228;81;21427;-72
2021/07/02 10:36:17;;;;;;;4.62;3.62;;;;;;;33.63;39.77;99278.44;1759175;81;20986;-73
2021/07/02 10:38:50;;;;;;;8.38;4.10;;;;;;;33.57;39.99;99275.96;1763270;81;20993;-73
2021/07/02 10:41:21;;;;;;;9.50;4.47;;;;;;;33.48;40.54;99280.18;1766343;81;20893;-72
2021/07/02 10:44:14;;;;;;;5.53;3.80;;;;;;;33.37;40.96;99280.59;1764152;80;21144;-73
2021/07/02 10:46:51;;;;;;;4.35;4.03;;;;;;;33.18;41.24;99286.02;1765831;81;21512;-68
2021/07/02 10:49:18;;;;;;;4.40;4.00;;;;;;;33.03;41.78;99275.84;1750276;81;21384;-67
2021/07/02 10:51:49;;;;;;;7.90;4.28;;;;;;;33.01;42.22;99270.70;1768967;81;21571;-67
2021/07/02 10:54:23;;;;;;;5.92;4.60;;;;;;;33.03;41.96;99273.15;1771087;81;20991;-70
2021/07/02 10:57:00;;;;;;;4.58;4.17;;;;;;;33.02;42.16;99278.27;1756435;81;21091;-73
2021/07/02 10:59:41;;;;;;;6.10;4.12;;;;;;;33.00;42.11;99278.52;1760401;80;21344;-73
2021/07/02 11:02:17;;;;;;;7.17;4.62;;;;;;;32.96;42.19;99276.03;1722633;82;20989;-69
2021/07/02 11:04:58;;;;;;;4.33;3.92;;;;;;;32.98;41.76;99277.13;1730199;81;21005;-69
2021/07/02 11:07:30;;;;;;;4.47;4.08;;;;;;;32.98;41.61;99276.59;1723062;82;20966;-71
2021/07/02 11:10:00;;;;;;;5.33;4.03;;;;;;;32.95;41.31;99283.02;1713052;82;21015;-73
2021/07/02 11:12:38;;;;;;;4.53;3.80;;;;;;;32.83;41.25;99273.69;1718691;82;21068;-66
2021/07/02 11:15:12;;;;;;;8.28;4.80;;;;;;;32.72;41.76;99275.95;1715189;82;21632;-68
2021/07/02 11:17:49;;;;;;;4.87;4.05;;;;;;;32.71;42.66;99269.75;1722287;81;21004;-69
2021/07/02 11:20:24;;;;;;;6.55;4.00;;;;;;;32.78;42.71;99274.46;1716731;82;21053;-65
2021/07/02 11:22:57;;;;;;;5.55;3.90;;;;;;;32.86;42.39;99261.59;1716376;82;21275;-65
2021/07/02 11:25:54;;;;;;;5.97;3.83;;;;;;;32.90;42.23;99262.72;1720622;82;21057;-64
2021/07/02 11:28:42;;;;;;;4.60;3.92;;;;;;;32.90;42.02;99254.09;1677115;83;20989;-69
2021/07/02 11:31:11;;;;;;;5.35;4.00;;;;;;;32.91;41.83;99254.38;1674883;84;22089;-65
2021/07/02 11:33:44;;;;;;;6.03;4.15;;;;;;;32.95;41.45;99248.77;1659909;84;21005;-69
2021/07/02 11:36:13;;;;;;;7.67;3.92;;;;;;;32.98;41.25;99241.53;1659072;84;21147;-68
2021/07/02 11:38:51;;;;;;;6.08;4.10;;;;;;;32.94;40.30;99247.67;1676463;84;21005;-70
2021/07/02 11:41:28;;;;;;;6.22;3.72;;;;;;;32.83;40.43;99241.33;1683802;84;21092;-78
2021/07/02 11:43:57;;;;;;;4.65;3.83;;;;;;;32.74;41.18;99249.56;1673124;84;21022;-74
2021/07/02 11:46:24;;;;;;;4.42;3.92;;;;;;;32.70;41.10;99249.24;1672704;84;21024;-73
2021/07/02 11:48:53;;;;;;;5.47;3.77;;;;;;;32.73;41.23;99235.80;1682250;84;21928;-74
2021/07/02 11:51:27;;;;;;;4.22;3.83;;;;;;;32.79;40.85;99233.48;1692372;84;21892;-67
2021/07/02 11:54:00;;;;;;;9.38;4.08;;;;;;;32.80;40.45;99232.39;1691258;84;20942;-73
2021/07/02 11:56:34;;;;;;;5.35;4.05;;;;;;;32.83;40.40;99225.15;1694327;83;20981;-67
2021/07/02 11:59:11;;;;;;;5.28;3.92;;;;;;;32.81;40.25;99225.40;1684363;84;21528;-67
2021/07/02 12:01:45;;;;;;;4.25;3.85;;;;;;;32.80;40.56;99225.12;1708931;83;21108;-69
2021/07/02 12:04:17;;;;;;;;;;;;;;;32.81;40.44;99223.23;1726582;82;20954;-66